sensor_id;sensor_type;location;lat;lon;timestamp;P1;durP1;ratioP1;P2;durP2;ratioP2
44189;SDS011;29856;52.144;5.430;2023-11-19T00:00:33;24.10;;;5.35;;
44189;SDS011;29856;52.144;5.430;2023-11-19T00:02:58;20.90;;;5.13;;
44189;SDS011;29856;52.144;5.430;2023-11-19T00:05:23;22.52;;;5.20;;
44189;SDS011;29856;52.144;5.430;2023-11-19T00:07:49;23.67;;;4.72;;
44189;SDS011;29856;52.144;5.430;2023-11-19T00:10:15;20.15;;;4.88;;
44189;SDS011;29856;52.144;5.430;2023-11-19T00:12:42;15.25;;;4.35;;
44189;SDS011;29856;52.144;5.430;2023-11-19T00:15:08;17.73;;;4.35;;
44189;SDS011;29856;52.144;5.430;2023-11-19T00:17:34;22.10;;;5.32;;
44189;SDS011;29856;52.144;5.430;2023-11-19T00:19:59;21.45;;;5.10;;
44189;SDS011;29856;52.144;5.430;2023-11-19T00:22:24;20.27;;;5.25;;
44189;SDS011;29856;52.144;5.430;2023-11-19T00:24:50;17.30;;;4.25;;
44189;SDS011;29856;52.144;5.430;2023-11-19T00:27:15;25.23;;;5.18;;
44189;SDS011;29856;52.144;5.430;2023-11-19T00:29:41;22.45;;;4.75;;
44189;SDS011;29856;52.144;5.430;2023-11-19T00:32:06;21.98;;;4.28;;
44189;SDS011;29856;52.144;5.430;2023-11-19T00:34:32;16.70;;;4.07;;
44189;SDS011;29856;52.144;5.430;2023-11-19T00:36:57;25.17;;;5.28;;
44189;SDS011;29856;52.144;5.430;2023-11-19T00:39:22;25.52;;;4.55;;
44189;SDS011;29856;52.144;5.430;2023-11-19T00:41:48;24.45;;;4.68;;
44189;SDS011;29856;52.144;5.430;2023-11-19T00:44:13;23.73;;;4.75;;
44189;SDS011;29856;52.144;5.430;2023-11-19T00:46:39;28.58;;;4.72;;
44189;SDS011;29856;52.144;5.430;2023-11-19T00:49:04;25.65;;;4.97;;
44189;SDS011;29856;52.144;5.430;2023-11-19T00:51:30;29.35;;;4.47;;
44189;SDS011;29856;52.144;5.430;2023-11-19T00:53:55;24.70;;;5.03;;
44189;SDS011;29856;52.144;5.430;2023-11-19T00:56:21;33.55;;;5.47;;
44189;SDS011;29856;52.144;5.430;2023-11-19T00:58:46;25.50;;;4.60;;
44189;SDS011;29856;52.144;5.430;2023-11-19T01:01:12;26.35;;;4.63;;
44189;SDS011;29856;52.144;5.430;2023-11-19T01:03:37;32.05;;;5.78;;
44189;SDS011;29856;52.144;5.430;2023-11-19T01:06:03;34.70;;;6.65;;
44189;SDS011;29856;52.144;5.430;2023-11-19T01:08:28;31.50;;;4.70;;
44189;SDS011;29856;52.144;5.430;2023-11-19T01:10:54;34.10;;;6.13;;
44189;SDS011;29856;52.144;5.430;2023-11-19T01:13:19;25.30;;;4.57;;
44189;SDS011;29856;52.144;5.430;2023-11-19T01:15:45;35.72;;;5.75;;
44189;SDS011;29856;52.144;5.430;2023-11-19T01:18:10;28.13;;;5.22;;
44189;SDS011;29856;52.144;5.430;2023-11-19T01:20:36;35.25;;;6.10;;
44189;SDS011;29856;52.144;5.430;2023-11-19T01:23:01;34.13;;;6.00;;
44189;SDS011;29856;52.144;5.430;2023-11-19T01:25:27;33.33;;;4.88;;
44189;SDS011;29856;52.144;5.430;2023-11-19T01:27:52;39.65;;;6.00;;
44189;SDS011;29856;52.144;5.430;2023-11-19T01:30:18;34.25;;;5.30;;
44189;SDS011;29856;52.144;5.430;2023-11-19T01:32:43;38.20;;;5.72;;
44189;SDS011;29856;52.144;5.430;2023-11-19T01:35:09;40.10;;;5.68;;
44189;SDS011;29856;52.144;5.430;2023-11-19T01:37:34;35.60;;;5.60;;
44189;SDS011;29856;52.144;5.430;2023-11-19T01:40:00;37.25;;;6.40;;
44189;SDS011;29856;52.144;5.430;2023-11-19T01:42:25;37.97;;;6.18;;
44189;SDS011;29856;52.144;5.430;2023-11-19T01:44:57;34.50;;;5.95;;
44189;SDS011;29856;52.144;5.430;2023-11-19T01:47:23;38.22;;;6.18;;
44189;SDS011;29856;52.144;5.430;2023-11-19T01:49:50;38.92;;;6.18;;
44189;SDS011;29856;52.144;5.430;2023-11-19T01:52:16;46.08;;;6.60;;
44189;SDS011;29856;52.144;5.430;2023-11-19T01:54:42;41.47;;;7.30;;
44189;SDS011;29856;52.144;5.430;2023-11-19T01:57:07;44.58;;;6.78;;
44189;SDS011;29856;52.144;5.430;2023-11-19T01:59:34;57.78;;;8.95;;
44189;SDS011;29856;52.144;5.430;2023-11-19T02:02:00;53.58;;;7.20;;
44189;SDS011;29856;52.144;5.430;2023-11-19T02:04:25;51.28;;;7.78;;
44189;SDS011;29856;52.144;5.430;2023-11-19T02:06:51;47.92;;;6.90;;
44189;SDS011;29856;52.144;5.430;2023-11-19T02:09:21;43.97;;;7.53;;
44189;SDS011;29856;52.144;5.430;2023-11-19T02:11:46;52.75;;;7.18;;
44189;SDS011;29856;52.144;5.430;2023-11-19T02:14:12;46.95;;;7.07;;
44189;SDS011;29856;52.144;5.430;2023-11-19T02:16:37;43.22;;;8.15;;
44189;SDS011;29856;52.144;5.430;2023-11-19T02:19:03;50.10;;;7.20;;
44189;SDS011;29856;52.144;5.430;2023-11-19T02:21:28;47.95;;;8.32;;
44189;SDS011;29856;52.144;5.430;2023-11-19T02:23:54;46.03;;;6.85;;
44189;SDS011;29856;52.144;5.430;2023-11-19T02:26:25;49.50;;;6.80;;
44189;SDS011;29856;52.144;5.430;2023-11-19T02:28:57;54.63;;;8.80;;
44189;SDS011;29856;52.144;5.430;2023-11-19T02:31:23;44.08;;;7.05;;
44189;SDS011;29856;52.144;5.430;2023-11-19T02:33:48;48.63;;;7.25;;
44189;SDS011;29856;52.144;5.430;2023-11-19T02:36:14;50.42;;;7.38;;
44189;SDS011;29856;52.144;5.430;2023-11-19T02:38:39;47.97;;;7.50;;
44189;SDS011;29856;52.144;5.430;2023-11-19T02:41:05;46.33;;;6.45;;
44189;SDS011;29856;52.144;5.430;2023-11-19T02:43:34;49.58;;;7.40;;
44189;SDS011;29856;52.144;5.430;2023-11-19T02:46:02;45.75;;;8.20;;
44189;SDS011;29856;52.144;5.430;2023-11-19T02:48:29;46.55;;;7.10;;
44189;SDS011;29856;52.144;5.430;2023-11-19T02:50:54;40.35;;;6.28;;
44189;SDS011;29856;52.144;5.430;2023-11-19T02:53:20;59.22;;;9.52;;
44189;SDS011;29856;52.144;5.430;2023-11-19T02:55:45;52.30;;;8.18;;
44189;SDS011;29856;52.144;5.430;2023-11-19T02:58:10;55.40;;;8.15;;
44189;SDS011;29856;52.144;5.430;2023-11-19T03:00:36;50.08;;;7.55;;
44189;SDS011;29856;52.144;5.430;2023-11-19T03:03:05;47.03;;;8.02;;
44189;SDS011;29856;52.144;5.430;2023-11-19T03:05:30;48.97;;;7.43;;
44189;SDS011;29856;52.144;5.430;2023-11-19T03:07:56;48.38;;;8.32;;
44189;SDS011;29856;52.144;5.430;2023-11-19T03:10:21;56.42;;;9.25;;
44189;SDS011;29856;52.144;5.430;2023-11-19T03:12:47;49.13;;;7.38;;
44189;SDS011;29856;52.144;5.430;2023-11-19T03:15:12;51.13;;;8.55;;
44189;SDS011;29856;52.144;5.430;2023-11-19T03:17:38;53.40;;;8.63;;
44189;SDS011;29856;52.144;5.430;2023-11-19T03:20:07;50.90;;;8.40;;
44189;SDS011;29856;52.144;5.430;2023-11-19T03:22:34;49.65;;;8.82;;
44189;SDS011;29856;52.144;5.430;2023-11-19T03:25:01;60.05;;;8.90;;
44189;SDS011;29856;52.144;5.430;2023-11-19T03:27:27;63.92;;;7.72;;
44189;SDS011;29856;52.144;5.430;2023-11-19T03:29:52;54.55;;;7.38;;
44189;SDS011;29856;52.144;5.430;2023-11-19T03:32:18;54.50;;;8.95;;
44189;SDS011;29856;52.144;5.430;2023-11-19T03:34:43;63.92;;;10.32;;
44189;SDS011;29856;52.144;5.430;2023-11-19T03:37:08;55.33;;;7.75;;
44189;SDS011;29856;52.144;5.430;2023-11-19T03:39:34;56.08;;;8.07;;
44189;SDS011;29856;52.144;5.430;2023-11-19T03:41:59;57.92;;;9.93;;
44189;SDS011;29856;52.144;5.430;2023-11-19T03:44:25;52.15;;;9.23;;
44189;SDS011;29856;52.144;5.430;2023-11-19T03:46:52;52.40;;;9.50;;
44189;SDS011;29856;52.144;5.430;2023-11-19T03:49:17;57.83;;;9.73;;
44189;SDS011;29856;52.144;5.430;2023-11-19T03:51:43;61.92;;;8.73;;
44189;SDS011;29856;52.144;5.430;2023-11-19T03:54:08;58.05;;;8.98;;
44189;SDS011;29856;52.144;5.430;2023-11-19T03:56:34;57.58;;;10.13;;
44189;SDS011;29856;52.144;5.430;2023-11-19T03:58:59;51.25;;;8.57;;
44189;SDS011;29856;52.144;5.430;2023-11-19T04:01:25;60.70;;;9.65;;
44189;SDS011;29856;52.144;5.430;2023-11-19T04:03:50;49.15;;;8.05;;
44189;SDS011;29856;52.144;5.430;2023-11-19T04:06:15;56.90;;;8.45;;
44189;SDS011;29856;52.144;5.430;2023-11-19T04:08:41;62.90;;;8.98;;
44189;SDS011;29856;52.144;5.430;2023-11-19T04:11:06;61.63;;;9.63;;
44189;SDS011;29856;52.144;5.430;2023-11-19T04:13:32;55.40;;;9.77;;
44189;SDS011;29856;52.144;5.430;2023-11-19T04:15:57;52.13;;;7.75;;
44189;SDS011;29856;52.144;5.430;2023-11-19T04:18:23;63.92;;;8.38;;
44189;SDS011;29856;52.144;5.430;2023-11-19T04:20:48;45.58;;;7.53;;
44189;SDS011;29856;52.144;5.430;2023-11-19T04:23:14;61.92;;;9.32;;
44189;SDS011;29856;52.144;5.430;2023-11-19T04:25:39;63.22;;;10.45;;
44189;SDS011;29856;52.144;5.430;2023-11-19T04:28:05;68.45;;;8.25;;
44189;SDS011;29856;52.144;5.430;2023-11-19T04:30:30;55.80;;;8.82;;
44189;SDS011;29856;52.144;5.430;2023-11-19T04:32:55;61.13;;;8.90;;
44189;SDS011;29856;52.144;5.430;2023-11-19T04:35:21;52.40;;;9.40;;
44189;SDS011;29856;52.144;5.430;2023-11-19T04:37:46;60.22;;;9.25;;
44189;SDS011;29856;52.144;5.430;2023-11-19T04:40:12;57.38;;;8.70;;
44189;SDS011;29856;52.144;5.430;2023-11-19T04:42:38;57.28;;;8.43;;
44189;SDS011;29856;52.144;5.430;2023-11-19T04:45:03;62.55;;;8.65;;
44189;SDS011;29856;52.144;5.430;2023-11-19T04:47:29;62.67;;;9.27;;
44189;SDS011;29856;52.144;5.430;2023-11-19T04:49:55;55.58;;;9.52;;
44189;SDS011;29856;52.144;5.430;2023-11-19T04:52:20;66.40;;;10.60;;
44189;SDS011;29856;52.144;5.430;2023-11-19T04:54:45;55.20;;;7.80;;
44189;SDS011;29856;52.144;5.430;2023-11-19T04:57:11;56.47;;;8.48;;
44189;SDS011;29856;52.144;5.430;2023-11-19T04:59:36;67.28;;;9.93;;
44189;SDS011;29856;52.144;5.430;2023-11-19T05:02:02;49.47;;;7.63;;
44189;SDS011;29856;52.144;5.430;2023-11-19T05:04:27;53.58;;;8.10;;
44189;SDS011;29856;52.144;5.430;2023-11-19T05:06:53;68.05;;;10.77;;
44189;SDS011;29856;52.144;5.430;2023-11-19T05:09:18;60.38;;;9.35;;
44189;SDS011;29856;52.144;5.430;2023-11-19T05:11:44;58.90;;;8.02;;
44189;SDS011;29856;52.144;5.430;2023-11-19T05:14:09;60.25;;;9.25;;
44189;SDS011;29856;52.144;5.430;2023-11-19T05:16:35;48.35;;;8.13;;
44189;SDS011;29856;52.144;5.430;2023-11-19T05:19:00;59.83;;;8.73;;
44189;SDS011;29856;52.144;5.430;2023-11-19T05:21:26;66.05;;;10.13;;
44189;SDS011;29856;52.144;5.430;2023-11-19T05:23:51;62.50;;;8.00;;
44189;SDS011;29856;52.144;5.430;2023-11-19T05:26:17;58.47;;;9.05;;
44189;SDS011;29856;52.144;5.430;2023-11-19T05:28:44;57.22;;;9.48;;
44189;SDS011;29856;52.144;5.430;2023-11-19T05:31:09;52.17;;;8.68;;
44189;SDS011;29856;52.144;5.430;2023-11-19T05:33:34;62.17;;;10.98;;
44189;SDS011;29856;52.144;5.430;2023-11-19T05:36:00;67.60;;;9.63;;
44189;SDS011;29856;52.144;5.430;2023-11-19T05:38:25;53.88;;;9.27;;
44189;SDS011;29856;52.144;5.430;2023-11-19T05:40:51;58.40;;;8.93;;
44189;SDS011;29856;52.144;5.430;2023-11-19T05:43:16;57.08;;;8.35;;
44189;SDS011;29856;52.144;5.430;2023-11-19T05:45:42;49.97;;;9.32;;
44189;SDS011;29856;52.144;5.430;2023-11-19T05:48:07;47.53;;;8.02;;
44189;SDS011;29856;52.144;5.430;2023-11-19T05:50:33;58.75;;;10.52;;
44189;SDS011;29856;52.144;5.430;2023-11-19T05:52:58;51.05;;;8.48;;
44189;SDS011;29856;52.144;5.430;2023-11-19T05:55:24;56.38;;;9.63;;
44189;SDS011;29856;52.144;5.430;2023-11-19T05:57:49;62.85;;;8.60;;
44189;SDS011;29856;52.144;5.430;2023-11-19T06:00:15;57.75;;;8.93;;
44189;SDS011;29856;52.144;5.430;2023-11-19T06:02:40;61.13;;;8.85;;
44189;SDS011;29856;52.144;5.430;2023-11-19T06:05:06;62.22;;;9.18;;
44189;SDS011;29856;52.144;5.430;2023-11-19T06:07:32;56.00;;;8.75;;
44189;SDS011;29856;52.144;5.430;2023-11-19T06:09:58;55.35;;;8.57;;
44189;SDS011;29856;52.144;5.430;2023-11-19T06:12:23;64.38;;;9.32;;
44189;SDS011;29856;52.144;5.430;2023-11-19T06:14:49;65.22;;;9.60;;
44189;SDS011;29856;52.144;5.430;2023-11-19T06:17:14;48.85;;;8.05;;
44189;SDS011;29856;52.144;5.430;2023-11-19T06:19:40;64.38;;;9.20;;
44189;SDS011;29856;52.144;5.430;2023-11-19T06:22:05;59.75;;;10.00;;
44189;SDS011;29856;52.144;5.430;2023-11-19T06:24:31;59.60;;;9.88;;
44189;SDS011;29856;52.144;5.430;2023-11-19T06:26:56;51.65;;;8.18;;
44189;SDS011;29856;52.144;5.430;2023-11-19T06:29:22;61.38;;;9.65;;
44189;SDS011;29856;52.144;5.430;2023-11-19T06:31:47;53.20;;;8.77;;
44189;SDS011;29856;52.144;5.430;2023-11-19T06:34:13;50.63;;;9.13;;
44189;SDS011;29856;52.144;5.430;2023-11-19T06:36:38;57.05;;;8.90;;
44189;SDS011;29856;52.144;5.430;2023-11-19T06:39:03;57.55;;;8.55;;
44189;SDS011;29856;52.144;5.430;2023-11-19T06:41:29;58.55;;;9.27;;
44189;SDS011;29856;52.144;5.430;2023-11-19T06:43:55;60.72;;;8.73;;
44189;SDS011;29856;52.144;5.430;2023-11-19T06:46:20;54.85;;;9.88;;
44189;SDS011;29856;52.144;5.430;2023-11-19T06:48:46;56.13;;;8.30;;
44189;SDS011;29856;52.144;5.430;2023-11-19T06:51:11;66.00;;;8.75;;
44189;SDS011;29856;52.144;5.430;2023-11-19T06:53:37;60.00;;;9.75;;
44189;SDS011;29856;52.144;5.430;2023-11-19T06:56:03;58.10;;;8.90;;
44189;SDS011;29856;52.144;5.430;2023-11-19T06:58:28;58.13;;;9.23;;
44189;SDS011;29856;52.144;5.430;2023-11-19T07:00:54;62.03;;;10.43;;
44189;SDS011;29856;52.144;5.430;2023-11-19T07:03:19;53.95;;;8.30;;
44189;SDS011;29856;52.144;5.430;2023-11-19T07:05:45;60.05;;;9.05;;
44189;SDS011;29856;52.144;5.430;2023-11-19T07:08:10;59.92;;;9.75;;
44189;SDS011;29856;52.144;5.430;2023-11-19T07:10:36;56.58;;;8.63;;
44189;SDS011;29856;52.144;5.430;2023-11-19T07:13:01;62.05;;;8.90;;
44189;SDS011;29856;52.144;5.430;2023-11-19T07:15:27;59.67;;;9.43;;
44189;SDS011;29856;52.144;5.430;2023-11-19T07:17:52;65.40;;;9.60;;
44189;SDS011;29856;52.144;5.430;2023-11-19T07:20:18;49.53;;;9.73;;
44189;SDS011;29856;52.144;5.430;2023-11-19T07:22:43;53.97;;;7.65;;
44189;SDS011;29856;52.144;5.430;2023-11-19T07:25:09;58.38;;;9.23;;
44189;SDS011;29856;52.144;5.430;2023-11-19T07:27:34;62.70;;;9.63;;
44189;SDS011;29856;52.144;5.430;2023-11-19T07:30:00;63.65;;;9.48;;
44189;SDS011;29856;52.144;5.430;2023-11-19T07:32:25;55.80;;;8.45;;
44189;SDS011;29856;52.144;5.430;2023-11-19T07:34:51;69.68;;;10.57;;
44189;SDS011;29856;52.144;5.430;2023-11-19T07:37:16;62.97;;;9.38;;
44189;SDS011;29856;52.144;5.430;2023-11-19T07:39:41;55.08;;;8.43;;
44189;SDS011;29856;52.144;5.430;2023-11-19T07:42:07;69.07;;;10.50;;
44189;SDS011;29856;52.144;5.430;2023-11-19T07:44:32;65.03;;;8.77;;
44189;SDS011;29856;52.144;5.430;2023-11-19T07:46:58;56.00;;;8.73;;
44189;SDS011;29856;52.144;5.430;2023-11-19T07:49:23;55.53;;;8.75;;
44189;SDS011;29856;52.144;5.430;2023-11-19T07:51:49;58.75;;;9.02;;
44189;SDS011;29856;52.144;5.430;2023-11-19T07:54:14;52.38;;;8.52;;
44189;SDS011;29856;52.144;5.430;2023-11-19T07:56:40;67.40;;;8.93;;
44189;SDS011;29856;52.144;5.430;2023-11-19T07:59:05;56.40;;;8.65;;
44189;SDS011;29856;52.144;5.430;2023-11-19T08:01:31;55.30;;;9.27;;
44189;SDS011;29856;52.144;5.430;2023-11-19T08:03:56;59.42;;;9.07;;
44189;SDS011;29856;52.144;5.430;2023-11-19T08:06:21;63.30;;;9.30;;
44189;SDS011;29856;52.144;5.430;2023-11-19T08:08:47;53.80;;;8.02;;
44189;SDS011;29856;52.144;5.430;2023-11-19T08:11:12;60.00;;;9.57;;
44189;SDS011;29856;52.144;5.430;2023-11-19T08:13:38;61.55;;;9.20;;
44189;SDS011;29856;52.144;5.430;2023-11-19T08:16:04;57.40;;;8.52;;
44189;SDS011;29856;52.144;5.430;2023-11-19T08:18:30;58.38;;;9.95;;
44189;SDS011;29856;52.144;5.430;2023-11-19T08:20:55;64.68;;;8.80;;
44189;SDS011;29856;52.144;5.430;2023-11-19T08:23:20;62.47;;;9.43;;
44189;SDS011;29856;52.144;5.430;2023-11-19T08:25:46;58.58;;;8.15;;
44189;SDS011;29856;52.144;5.430;2023-11-19T08:28:11;54.67;;;8.52;;
44189;SDS011;29856;52.144;5.430;2023-11-19T08:30:37;60.70;;;9.55;;
44189;SDS011;29856;52.144;5.430;2023-11-19T08:33:02;62.70;;;9.85;;
44189;SDS011;29856;52.144;5.430;2023-11-19T08:35:31;56.83;;;7.70;;
44189;SDS011;29856;52.144;5.430;2023-11-19T08:37:57;61.92;;;9.20;;
44189;SDS011;29856;52.144;5.430;2023-11-19T08:40:22;47.72;;;8.48;;
44189;SDS011;29856;52.144;5.430;2023-11-19T08:42:48;59.33;;;9.07;;
44189;SDS011;29856;52.144;5.430;2023-11-19T08:45:13;61.90;;;8.85;;
44189;SDS011;29856;52.144;5.430;2023-11-19T08:47:39;50.20;;;8.30;;
44189;SDS011;29856;52.144;5.430;2023-11-19T08:50:04;52.95;;;7.82;;
44189;SDS011;29856;52.144;5.430;2023-11-19T08:52:30;56.08;;;7.93;;
44189;SDS011;29856;52.144;5.430;2023-11-19T08:54:56;45.42;;;8.27;;
44189;SDS011;29856;52.144;5.430;2023-11-19T08:57:21;52.83;;;8.57;;
44189;SDS011;29856;52.144;5.430;2023-11-19T08:59:47;46.38;;;7.90;;
44189;SDS011;29856;52.144;5.430;2023-11-19T09:02:12;59.03;;;8.52;;
44189;SDS011;29856;52.144;5.430;2023-11-19T09:04:38;49.25;;;8.60;;
44189;SDS011;29856;52.144;5.430;2023-11-19T09:07:03;47.70;;;7.60;;
44189;SDS011;29856;52.144;5.430;2023-11-19T09:09:29;52.13;;;7.82;;
44189;SDS011;29856;52.144;5.430;2023-11-19T09:11:54;55.67;;;8.80;;
44189;SDS011;29856;52.144;5.430;2023-11-19T09:14:20;63.05;;;9.05;;
44189;SDS011;29856;52.144;5.430;2023-11-19T09:16:45;59.67;;;7.82;;
44189;SDS011;29856;52.144;5.430;2023-11-19T09:19:11;53.30;;;8.32;;
44189;SDS011;29856;52.144;5.430;2023-11-19T09:21:36;49.67;;;7.55;;
44189;SDS011;29856;52.144;5.430;2023-11-19T09:24:02;52.40;;;8.57;;
44189;SDS011;29856;52.144;5.430;2023-11-19T09:26:27;54.47;;;8.82;;
44189;SDS011;29856;52.144;5.430;2023-11-19T09:28:53;53.35;;;9.50;;
44189;SDS011;29856;52.144;5.430;2023-11-19T09:31:19;60.75;;;8.98;;
44189;SDS011;29856;52.144;5.430;2023-11-19T09:33:44;55.13;;;8.55;;
44189;SDS011;29856;52.144;5.430;2023-11-19T09:36:11;56.08;;;9.65;;
44189;SDS011;29856;52.144;5.430;2023-11-19T09:38:37;55.72;;;7.93;;
44189;SDS011;29856;52.144;5.430;2023-11-19T09:41:05;57.00;;;9.07;;
44189;SDS011;29856;52.144;5.430;2023-11-19T09:43:31;58.60;;;9.18;;
44189;SDS011;29856;52.144;5.430;2023-11-19T09:45:57;57.08;;;8.52;;
44189;SDS011;29856;52.144;5.430;2023-11-19T09:48:24;49.03;;;7.18;;
44189;SDS011;29856;52.144;5.430;2023-11-19T09:50:51;53.88;;;7.85;;
44189;SDS011;29856;52.144;5.430;2023-11-19T09:53:17;50.15;;;9.07;;
44189;SDS011;29856;52.144;5.430;2023-11-19T09:55:43;61.28;;;10.05;;
44189;SDS011;29856;52.144;5.430;2023-11-19T09:58:09;58.75;;;8.30;;
44189;SDS011;29856;52.144;5.430;2023-11-19T10:00:38;50.05;;;7.53;;
44189;SDS011;29856;52.144;5.430;2023-11-19T10:03:05;55.05;;;8.93;;
44189;SDS011;29856;52.144;5.430;2023-11-19T10:05:34;56.38;;;7.55;;
44189;SDS011;29856;52.144;5.430;2023-11-19T10:08:01;56.40;;;8.98;;
44189;SDS011;29856;52.144;5.430;2023-11-19T10:10:26;55.97;;;9.50;;
44189;SDS011;29856;52.144;5.430;2023-11-19T10:12:52;50.75;;;7.20;;
44189;SDS011;29856;52.144;5.430;2023-11-19T10:15:20;51.90;;;8.55;;
44189;SDS011;29856;52.144;5.430;2023-11-19T10:17:47;60.95;;;9.23;;
44189;SDS011;29856;52.144;5.430;2023-11-19T10:20:13;58.25;;;7.70;;
44189;SDS011;29856;52.144;5.430;2023-11-19T10:22:38;44.75;;;7.18;;
44189;SDS011;29856;52.144;5.430;2023-11-19T10:25:04;53.92;;;7.22;;
44189;SDS011;29856;52.144;5.430;2023-11-19T10:27:46;39.88;;;7.13;;
44189;SDS011;29856;52.144;5.430;2023-11-19T10:30:11;50.88;;;7.15;;
44189;SDS011;29856;52.144;5.430;2023-11-19T10:32:37;55.28;;;8.60;;
44189;SDS011;29856;52.144;5.430;2023-11-19T10:35:05;53.10;;;6.75;;
44189;SDS011;29856;52.144;5.430;2023-11-19T10:37:31;48.72;;;7.68;;
44189;SDS011;29856;52.144;5.430;2023-11-19T10:39:57;45.55;;;8.50;;
44189;SDS011;29856;52.144;5.430;2023-11-19T10:42:22;51.72;;;8.93;;
44189;SDS011;29856;52.144;5.430;2023-11-19T10:44:48;47.58;;;8.15;;
44189;SDS011;29856;52.144;5.430;2023-11-19T10:47:13;48.35;;;8.25;;
44189;SDS011;29856;52.144;5.430;2023-11-19T10:49:39;49.60;;;7.93;;
44189;SDS011;29856;52.144;5.430;2023-11-19T10:52:05;47.08;;;7.15;;
44189;SDS011;29856;52.144;5.430;2023-11-19T10:54:33;45.53;;;7.90;;
44189;SDS011;29856;52.144;5.430;2023-11-19T10:56:59;51.97;;;8.27;;
44189;SDS011;29856;52.144;5.430;2023-11-19T10:59:27;47.15;;;9.48;;
44189;SDS011;29856;52.144;5.430;2023-11-19T11:01:55;41.63;;;7.88;;
44189;SDS011;29856;52.144;5.430;2023-11-19T11:04:24;43.88;;;7.20;;
44189;SDS011;29856;52.144;5.430;2023-11-19T11:06:51;40.08;;;7.03;;
44189;SDS011;29856;52.144;5.430;2023-11-19T11:09:18;51.53;;;8.52;;
44189;SDS011;29856;52.144;5.430;2023-11-19T11:11:46;47.00;;;6.57;;
44189;SDS011;29856;52.144;5.430;2023-11-19T11:14:13;43.20;;;7.28;;
44189;SDS011;29856;52.144;5.430;2023-11-19T11:16:41;42.58;;;6.90;;
44189;SDS011;29856;52.144;5.430;2023-11-19T11:19:08;49.30;;;7.90;;
44189;SDS011;29856;52.144;5.430;2023-11-19T11:21:34;46.80;;;7.55;;
44189;SDS011;29856;52.144;5.430;2023-11-19T11:24:09;42.20;;;6.97;;
44189;SDS011;29856;52.144;5.430;2023-11-19T11:26:42;41.50;;;7.20;;
44189;SDS011;29856;52.144;5.430;2023-11-19T11:29:16;41.53;;;7.43;;
44189;SDS011;29856;52.144;5.430;2023-11-19T11:39:38;50.17;;;8.20;;
44189;SDS011;29856;52.144;5.430;2023-11-19T11:44:58;46.88;;;7.90;;
44189;SDS011;29856;52.144;5.430;2023-11-19T11:50:09;44.40;;;7.85;;
44189;SDS011;29856;52.144;5.430;2023-11-19T11:56:08;44.67;;;7.28;;
44189;SDS011;29856;52.144;5.430;2023-11-19T11:58:18;47.53;;;7.70;;
44189;SDS011;29856;52.144;5.430;2023-11-19T12:00:44;38.30;;;7.93;;
44189;SDS011;29856;52.144;5.430;2023-11-19T12:03:12;48.30;;;7.28;;
44189;SDS011;29856;52.144;5.430;2023-11-19T12:05:39;39.28;;;7.53;;
44189;SDS011;29856;52.144;5.430;2023-11-19T12:08:07;36.03;;;6.40;;
44189;SDS011;29856;52.144;5.430;2023-11-19T12:10:36;46.53;;;7.30;;
44189;SDS011;29856;52.144;5.430;2023-11-19T12:13:10;46.63;;;8.23;;
44189;SDS011;29856;52.144;5.430;2023-11-19T12:16:20;42.65;;;7.70;;
44189;SDS011;29856;52.144;5.430;2023-11-19T12:18:21;35.53;;;6.45;;
44189;SDS011;29856;52.144;5.430;2023-11-19T12:20:52;34.63;;;6.38;;
44189;SDS011;29856;52.144;5.430;2023-11-19T12:23:17;40.03;;;6.60;;
44189;SDS011;29856;52.144;5.430;2023-11-19T12:25:43;36.30;;;6.88;;
44189;SDS011;29856;52.144;5.430;2023-11-19T12:28:11;35.70;;;6.78;;
44189;SDS011;29856;52.144;5.430;2023-11-19T12:30:37;34.05;;;6.07;;
44189;SDS011;29856;52.144;5.430;2023-11-19T12:33:07;38.78;;;6.80;;
44189;SDS011;29856;52.144;5.430;2023-11-19T12:35:33;38.90;;;6.38;;
44189;SDS011;29856;52.144;5.430;2023-11-19T12:40:50;42.47;;;9.73;;
44189;SDS011;29856;52.144;5.430;2023-11-19T12:43:28;35.72;;;8.38;;
44189;SDS011;29856;52.144;5.430;2023-11-19T12:45:53;46.10;;;8.57;;
44189;SDS011;29856;52.144;5.430;2023-11-19T12:48:19;33.53;;;8.07;;
44189;SDS011;29856;52.144;5.430;2023-11-19T12:53:20;41.38;;;6.88;;
44189;SDS011;29856;52.144;5.430;2023-11-19T12:55:46;37.20;;;6.38;;
44189;SDS011;29856;52.144;5.430;2023-11-19T12:58:27;37.90;;;6.32;;
44189;SDS011;29856;52.144;5.430;2023-11-19T13:01:02;30.33;;;6.07;;
44189;SDS011;29856;52.144;5.430;2023-11-19T13:03:30;41.78;;;6.85;;
44189;SDS011;29856;52.144;5.430;2023-11-19T13:06:06;41.47;;;6.53;;
44189;SDS011;29856;52.144;5.430;2023-11-19T13:08:36;49.40;;;6.90;;
44189;SDS011;29856;52.144;5.430;2023-11-19T13:11:02;39.30;;;7.25;;
44189;SDS011;29856;52.144;5.430;2023-11-19T13:13:28;33.63;;;6.18;;
44189;SDS011;29856;52.144;5.430;2023-11-19T13:15:53;41.83;;;6.55;;
44189;SDS011;29856;52.144;5.430;2023-11-19T13:18:26;40.10;;;7.75;;
44189;SDS011;29856;52.144;5.430;2023-11-19T13:20:51;45.70;;;6.88;;
44189;SDS011;29856;52.144;5.430;2023-11-19T13:23:17;37.03;;;5.80;;
44189;SDS011;29856;52.144;5.430;2023-11-19T13:25:42;48.75;;;7.13;;
44189;SDS011;29856;52.144;5.430;2023-11-19T13:28:07;49.65;;;7.15;;
44189;SDS011;29856;52.144;5.430;2023-11-19T13:30:33;41.72;;;6.70;;
44189;SDS011;29856;52.144;5.430;2023-11-19T13:32:58;43.15;;;6.30;;
44189;SDS011;29856;52.144;5.430;2023-11-19T13:35:24;47.55;;;7.63;;
44189;SDS011;29856;52.144;5.430;2023-11-19T13:37:49;45.80;;;7.70;;
44189;SDS011;29856;52.144;5.430;2023-11-19T13:40:15;48.30;;;9.38;;
44189;SDS011;29856;52.144;5.430;2023-11-19T13:42:44;57.35;;;8.40;;
44189;SDS011;29856;52.144;5.430;2023-11-19T13:45:09;37.72;;;6.20;;
44189;SDS011;29856;52.144;5.430;2023-11-19T13:47:36;39.55;;;6.55;;
44189;SDS011;29856;52.144;5.430;2023-11-19T13:50:01;46.35;;;8.75;;
44189;SDS011;29856;52.144;5.430;2023-11-19T13:52:27;32.28;;;7.18;;
44189;SDS011;29856;52.144;5.430;2023-11-19T13:54:53;42.50;;;7.75;;
44189;SDS011;29856;52.144;5.430;2023-11-19T13:57:18;38.38;;;7.05;;
44189;SDS011;29856;52.144;5.430;2023-11-19T13:59:43;37.00;;;6.55;;
44189;SDS011;29856;52.144;5.430;2023-11-19T14:02:09;44.80;;;7.30;;
44189;SDS011;29856;52.144;5.430;2023-11-19T14:04:34;36.28;;;6.38;;
44189;SDS011;29856;52.144;5.430;2023-11-19T14:07:00;38.70;;;5.65;;
44189;SDS011;29856;52.144;5.430;2023-11-19T14:09:26;41.35;;;7.35;;
44189;SDS011;29856;52.144;5.430;2023-11-19T14:11:51;36.90;;;5.63;;
44189;SDS011;29856;52.144;5.430;2023-11-19T14:14:16;32.92;;;5.57;;
44189;SDS011;29856;52.144;5.430;2023-11-19T14:16:42;37.88;;;6.10;;
44189;SDS011;29856;52.144;5.430;2023-11-19T14:19:07;35.83;;;6.00;;
44189;SDS011;29856;52.144;5.430;2023-11-19T14:21:33;37.35;;;6.13;;
44189;SDS011;29856;52.144;5.430;2023-11-19T14:23:58;39.97;;;5.85;;
44189;SDS011;29856;52.144;5.430;2023-11-19T14:26:24;35.45;;;5.57;;
44189;SDS011;29856;52.144;5.430;2023-11-19T14:28:49;40.47;;;5.97;;
44189;SDS011;29856;52.144;5.430;2023-11-19T14:31:15;39.67;;;6.90;;
44189;SDS011;29856;52.144;5.430;2023-11-19T14:33:40;34.63;;;6.78;;
44189;SDS011;29856;52.144;5.430;2023-11-19T14:36:06;37.30;;;6.25;;
44189;SDS011;29856;52.144;5.430;2023-11-19T14:38:32;43.17;;;6.72;;
44189;SDS011;29856;52.144;5.430;2023-11-19T14:40:57;40.85;;;6.60;;
44189;SDS011;29856;52.144;5.430;2023-11-19T14:43:23;41.67;;;6.70;;
44189;SDS011;29856;52.144;5.430;2023-11-19T14:45:48;38.20;;;5.72;;
44189;SDS011;29856;52.144;5.430;2023-11-19T14:48:14;44.20;;;6.43;;